sensor_id;sensor_type;location;lat;lon;timestamp;pressure;altitude;pressure_sealevel;temperature;humidity
12471;BME280;36499;46.484;13.832;2022-09-09T00:00:32;93102.66;;;16.50;89.14
12471;BME280;36499;46.484;13.832;2022-09-09T00:03:14;93098.47;;;16.54;88.55
12471;BME280;36499;46.484;13.832;2022-09-09T00:05:53;93097.69;;;16.53;90.08
12471;BME280;36499;46.484;13.832;2022-09-09T00:08:35;93098.00;;;16.57;89.73
12471;BME280;36499;46.484;13.832;2022-09-09T00:11:16;93104.06;;;16.57;89.86
12471;BME280;36499;46.484;13.832;2022-09-09T00:13:52;93098.72;;;16.52;90.33
12471;BME280;36499;46.484;13.832;2022-09-09T00:16:25;93101.09;;;16.54;90.32
12471;BME280;36499;46.484;13.832;2022-09-09T00:19:08;93094.75;;;16.50;90.47
12471;BME280;36499;46.484;13.832;2022-09-09T00:21:55;93088.63;;;16.44;90.69
12471;BME280;36499;46.484;13.832;2022-09-09T00:24:32;93085.16;;;16.39;91.18
12471;BME280;36499;46.484;13.832;2022-09-09T00:27:16;93090.13;;;16.35;91.70
12471;BME280;36499;46.484;13.832;2022-09-09T00:30:03;93094.03;;;16.32;91.85
12471;BME280;36499;46.484;13.832;2022-09-09T00:32:35;93097.22;;;16.35;92.26
12471;BME280;36499;46.484;13.832;2022-09-09T00:35:21;93089.88;;;16.37;92.50
12471;BME280;36499;46.484;13.832;2022-09-09T00:37:53;93091.47;;;16.38;93.35
12471;BME280;36499;46.484;13.832;2022-09-09T00:40:30;93079.84;;;16.33;93.43
12471;BME280;36499;46.484;13.832;2022-09-09T00:43:24;93076.66;;;16.31;93.95
12471;BME280;36499;46.484;13.832;2022-09-09T00:46:50;93076.66;;;16.31;94.13
12471;BME280;36499;46.484;13.832;2022-09-09T00:49:38;93083.50;;;16.32;93.55
12471;BME280;36499;46.484;13.832;2022-09-09T00:52:28;93086.41;;;16.31;93.21
12471;BME280;36499;46.484;13.832;2022-09-09T00:55:07;93082.41;;;16.28;93.45
12471;BME280;36499;46.484;13.832;2022-09-09T00:57:42;93085.53;;;16.25;93.48
12471;BME280;36499;46.484;13.832;2022-09-09T01:00:25;93082.91;;;16.25;92.75
12471;BME280;36499;46.484;13.832;2022-09-09T01:03:25;93091.78;;;16.19;92.94
12471;BME280;36499;46.484;13.832;2022-09-09T01:06:11;93094.44;;;16.19;92.29
12471;BME280;36499;46.484;13.832;2022-09-09T01:09:04;93102.50;;;16.13;92.65
12471;BME280;36499;46.484;13.832;2022-09-09T01:11:51;93101.44;;;16.14;93.64
12471;BME280;36499;46.484;13.832;2022-09-09T01:14:40;93098.81;;;16.14;93.45
12471;BME280;36499;46.484;13.832;2022-09-09T01:17:17;93107.50;;;16.14;93.38
12471;BME280;36499;46.484;13.832;2022-09-09T01:20:02;93108.53;;;16.13;93.56
12471;BME280;36499;46.484;13.832;2022-09-09T01:22:45;93101.63;;;16.29;92.28
12471;BME280;36499;46.484;13.832;2022-09-09T01:26:10;93102.25;;;16.14;92.98
12471;BME280;36499;46.484;13.832;2022-09-09T01:28:45;93094.06;;;16.11;93.67
12471;BME280;36499;46.484;13.832;2022-09-09T01:31:20;93087.19;;;16.10;93.67
12471;BME280;36499;46.484;13.832;2022-09-09T01:33:49;93080.91;;;16.11;93.35
12471;BME280;36499;46.484;13.832;2022-09-09T01:36:29;93084.34;;;16.11;93.52
12471;BME280;36499;46.484;13.832;2022-09-09T01:39:02;93084.09;;;16.13;93.69
12471;BME280;36499;46.484;13.832;2022-09-09T01:41:31;93072.78;;;16.12;93.81
12471;BME280;36499;46.484;13.832;2022-09-09T01:44:00;93072.78;;;16.12;93.70
12471;BME280;36499;46.484;13.832;2022-09-09T01:46:28;93083.03;;;16.14;93.79
12471;BME280;36499;46.484;13.832;2022-09-09T01:48:57;93090.13;;;16.13;93.80
12471;BME280;36499;46.484;13.832;2022-09-09T01:51:25;93087.47;;;16.08;94.05
12471;BME280;36499;46.484;13.832;2022-09-09T01:53:53;93088.78;;;16.11;93.36
12471;BME280;36499;46.484;13.832;2022-09-09T01:56:35;93091.19;;;16.12;93.69
12471;BME280;36499;46.484;13.832;2022-09-09T01:59:28;93097.00;;;16.14;93.03
12471;BME280;36499;46.484;13.832;2022-09-09T02:02:11;93086.47;;;16.14;92.72
12471;BME280;36499;46.484;13.832;2022-09-09T02:04:43;93079.94;;;16.17;92.91
12471;BME280;36499;46.484;13.832;2022-09-09T02:07:30;93082.81;;;16.15;93.33
12471;BME280;36499;46.484;13.832;2022-09-09T02:10:10;93093.41;;;16.20;93.38
12471;BME280;36499;46.484;13.832;2022-09-09T02:12:43;93087.88;;;16.22;93.49
12471;BME280;36499;46.484;13.832;2022-09-09T02:15:22;93086.59;;;16.24;93.51
12471;BME280;36499;46.484;13.832;2022-09-09T02:17:52;93097.13;;;16.24;92.97
12471;BME280;36499;46.484;13.832;2022-09-09T02:20:26;93095.81;;;16.27;91.55
12471;BME280;36499;46.484;13.832;2022-09-09T02:22:56;93098.19;;;16.28;91.34
12471;BME280;36499;46.484;13.832;2022-09-09T02:25:28;93099.78;;;16.29;91.09
12471;BME280;36499;46.484;13.832;2022-09-09T02:27:57;93099.78;;;16.29;91.10
12471;BME280;36499;46.484;13.832;2022-09-09T02:30:29;93087.66;;;16.28;91.28
12471;BME280;36499;46.484;13.832;2022-09-09T02:33:04;93094.50;;;16.24;91.71
12471;BME280;36499;46.484;13.832;2022-09-09T02:35:34;93093.13;;;16.22;92.14
12471;BME280;36499;46.484;13.832;2022-09-09T02:38:10;93092.03;;;16.18;92.61
12471;BME280;36499;46.484;13.832;2022-09-09T02:40:39;93092.00;;;16.13;92.97
12471;BME280;36499;46.484;13.832;2022-09-09T02:43:08;93091.13;;;16.07;93.33
12471;BME280;36499;46.484;13.832;2022-09-09T02:45:44;93083.47;;;16.06;93.61
12471;BME280;36499;46.484;13.832;2022-09-09T02:48:26;93085.63;;;16.09;93.56
12471;BME280;36499;46.484;13.832;2022-09-09T02:51:03;93082.19;;;16.08;93.68
12471;BME280;36499;46.484;13.832;2022-09-09T02:53:43;93087.97;;;16.05;92.98
12471;BME280;36499;46.484;13.832;2022-09-09T02:56:19;93092.41;;;16.05;93.78
12471;BME280;36499;46.484;13.832;2022-09-09T02:58:52;93080.31;;;16.04;93.17
12471;BME280;36499;46.484;13.832;2022-09-09T03:01:21;93071.84;;;16.02;93.39
12471;BME280;36499;46.484;13.832;2022-09-09T03:03:48;93072.03;;;15.95;93.76
12471;BME280;36499;46.484;13.832;2022-09-09T03:06:15;93061.72;;;15.89;94.31
12471;BME280;36499;46.484;13.832;2022-09-09T03:08:42;93063.00;;;15.86;94.96
12471;BME280;36499;46.484;13.832;2022-09-09T03:11:09;93064.03;;;15.85;94.87
12471;BME280;36499;46.484;13.832;2022-09-09T03:13:37;93063.78;;;15.87;94.96
12471;BME280;36499;46.484;13.832;2022-09-09T03:16:10;93064.34;;;15.89;94.45
12471;BME280;36499;46.484;13.832;2022-09-09T03:18:37;93065.38;;;15.88;94.89
12471;BME280;36499;46.484;13.832;2022-09-09T03:21:05;93068.81;;;15.88;95.24
12471;BME280;36499;46.484;13.832;2022-09-09T03:23:32;93062.22;;;15.86;94.81
12471;BME280;36499;46.484;13.832;2022-09-09T03:25:59;93063.34;;;15.95;94.66
12471;BME280;36499;46.484;13.832;2022-09-09T03:28:27;93065.16;;;15.89;94.88
12471;BME280;36499;46.484;13.832;2022-09-09T03:31:02;93063.63;;;15.93;94.71
12471;BME280;36499;46.484;13.832;2022-09-09T03:33:32;93073.16;;;15.99;94.81
12471;BME280;36499;46.484;13.832;2022-09-09T03:36:00;93071.09;;;16.01;94.70
12471;BME280;36499;46.484;13.832;2022-09-09T03:38:27;93071.84;;;16.02;94.76
12471;BME280;36499;46.484;13.832;2022-09-09T03:40:56;93083.72;;;16.04;94.64
12471;BME280;36499;46.484;13.832;2022-09-09T03:43:26;93082.94;;;16.04;94.15
12471;BME280;36499;46.484;13.832;2022-09-09T03:45:54;93083.72;;;16.04;94.63
12471;BME280;36499;46.484;13.832;2022-09-09T03:48:23;93091.63;;;16.04;94.53
12471;BME280;36499;46.484;13.832;2022-09-09T03:50:53;93082.69;;;16.05;94.50
12471;BME280;36499;46.484;13.832;2022-09-09T03:53:24;93081.34;;;16.03;94.43
12471;BME280;36499;46.484;13.832;2022-09-09T03:55:54;93075.59;;;16.06;94.84
12471;BME280;36499;46.484;13.832;2022-09-09T03:58:23;93071.69;;;16.08;94.59
12471;BME280;36499;46.484;13.832;2022-09-09T04:00:57;93076.16;;;16.08;94.67
12471;BME280;36499;46.484;13.832;2022-09-09T04:03:25;93088.00;;;16.10;94.61
12471;BME280;36499;46.484;13.832;2022-09-09T04:05:55;93079.59;;;16.13;94.62
12471;BME280;36499;46.484;13.832;2022-09-09T04:08:23;93070.69;;;16.14;95.02
12471;BME280;36499;46.484;13.832;2022-09-09T04:10:52;93068.84;;;16.15;95.01
12471;BME280;36499;46.484;13.832;2022-09-09T04:13:23;93071.25;;;16.16;94.90
12471;BME280;36499;46.484;13.832;2022-09-09T04:15:51;93073.38;;;16.19;94.55
12471;BME280;36499;46.484;13.832;2022-09-09T04:18:21;93065.19;;;16.16;94.32
12471;BME280;36499;46.484;13.832;2022-09-09T04:20:54;93066.47;;;16.13;94.26
12471;BME280;36499;46.484;13.832;2022-09-09T04:23:24;93071.19;;;16.11;94.60
12471;BME280;36499;46.484;13.832;2022-09-09T04:25:56;93070.09;;;16.07;94.81
12471;BME280;36499;46.484;13.832;2022-09-09T04:28:29;93072.47;;;16.09;94.80
12471;BME280;36499;46.484;13.832;2022-09-09T04:31:03;93058.28;;;16.10;94.92
12471;BME280;36499;46.484;13.832;2022-09-09T04:33:30;93057.47;;;16.09;95.45
12471;BME280;36499;46.484;13.832;2022-09-09T04:35:59;93068.00;;;16.09;95.03
12471;BME280;36499;46.484;13.832;2022-09-09T04:38:26;93053.28;;;16.08;94.92
12471;BME280;36499;46.484;13.832;2022-09-09T04:40:53;93055.63;;;16.10;94.72
12471;BME280;36499;46.484;13.832;2022-09-09T04:43:22;93064.59;;;16.09;94.00
12471;BME280;36499;46.484;13.832;2022-09-09T04:45:52;93070.09;;;16.07;93.41
12471;BME280;36499;46.484;13.832;2022-09-09T04:48:20;93062.69;;;16.04;92.90
12471;BME280;36499;46.484;13.832;2022-09-09T04:50:56;93062.69;;;16.04;92.85
12471;BME280;36499;46.484;13.832;2022-09-09T04:53:25;93055.84;;;16.03;90.88
12471;BME280;36499;46.484;13.832;2022-09-09T04:56:00;93064.72;;;15.97;90.56
12471;BME280;36499;46.484;13.832;2022-09-09T04:58:27;93061.53;;;15.95;90.17
12471;BME280;36499;46.484;13.832;2022-09-09T05:00:54;93059.09;;;15.89;90.07
12471;BME280;36499;46.484;13.832;2022-09-09T05:03:21;93058.09;;;15.95;90.24
12471;BME280;36499;46.484;13.832;2022-09-09T05:05:50;93066.28;;;15.98;89.76
12471;BME280;36499;46.484;13.832;2022-09-09T05:08:19;93072.03;;;15.95;89.84
12471;BME280;36499;46.484;13.832;2022-09-09T05:10:47;93060.50;;;15.96;89.59
12471;BME280;36499;46.484;13.832;2022-09-09T05:13:19;93055.44;;;15.90;90.24
12471;BME280;36499;46.484;13.832;2022-09-09T05:15:54;93061.72;;;15.89;90.45
12471;BME280;36499;46.484;13.832;2022-09-09T05:18:22;93059.88;;;15.89;90.21
12471;BME280;36499;46.484;13.832;2022-09-09T05:20:49;93061.16;;;15.87;90.12
12471;BME280;36499;46.484;13.832;2022-09-09T05:23:16;93062.81;;;15.93;89.75
12471;BME280;36499;46.484;13.832;2022-09-09T05:25:43;93065.97;;;15.95;89.46
12471;BME280;36499;46.484;13.832;2022-09-09T05:28:13;93059.47;;;15.97;89.64
12471;BME280;36499;46.484;13.832;2022-09-09T05:30:41;93058.97;;;16.00;89.69
12471;BME280;36499;46.484;13.832;2022-09-09T05:33:08;93051.59;;;16.02;89.63
12471;BME280;36499;46.484;13.832;2022-09-09T05:35:35;93059.88;;;16.11;89.10
12471;BME280;36499;46.484;13.832;2022-09-09T05:38:03;93063.06;;;16.13;89.20
12471;BME280;36499;46.484;13.832;2022-09-09T05:40:31;93068.75;;;16.05;88.65
12471;BME280;36499;46.484;13.832;2022-09-09T05:43:00;93073.94;;;16.00;89.23
12471;BME280;36499;46.484;13.832;2022-09-09T05:45:30;93074.66;;;15.95;88.60
12471;BME280;36499;46.484;13.832;2022-09-09T05:47:57;93073.34;;;15.93;88.74
12471;BME280;36499;46.484;13.832;2022-09-09T05:50:25;93068.38;;;15.96;89.21
12471;BME280;36499;46.484;13.832;2022-09-09T05:52:55;93070.34;;;15.84;88.85
12471;BME280;36499;46.484;13.832;2022-09-09T05:55:22;93079.41;;;15.93;89.04
12471;BME280;36499;46.484;13.832;2022-09-09T05:57:49;93063.38;;;15.73;88.18
12471;BME280;36499;46.484;13.832;2022-09-09T06:00:18;93074.78;;;15.62;88.17
12471;BME280;36499;46.484;13.832;2022-09-09T06:02:52;93069.16;;;15.53;88.84
12471;BME280;36499;46.484;13.832;2022-09-09T06:05:19;93069.84;;;15.49;89.88
12471;BME280;36499;46.484;13.832;2022-09-09T06:07:51;93062.88;;;15.54;89.81
12471;BME280;36499;46.484;13.832;2022-09-09T06:10:19;93066.09;;;15.45;89.38
12471;BME280;36499;46.484;13.832;2022-09-09T06:12:46;93063.41;;;15.56;89.73
12471;BME280;36499;46.484;13.832;2022-09-09T06:15:13;93058.94;;;15.57;89.84
12471;BME280;36499;46.484;13.832;2022-09-09T06:17:40;93070.44;;;15.51;89.97
12471;BME280;36499;46.484;13.832;2022-09-09T06:20:10;93065.81;;;15.41;90.36
12471;BME280;36499;46.484;13.832;2022-09-09T06:22:39;93068.59;;;15.34;91.61
12471;BME280;36499;46.484;13.832;2022-09-09T06:25:08;93064.53;;;15.44;91.08
12471;BME280;36499;46.484;13.832;2022-09-09T06:27:36;93065.19;;;15.51;90.81
12471;BME280;36499;46.484;13.832;2022-09-09T06:30:04;93062.94;;;15.43;91.14
12471;BME280;36499;46.484;13.832;2022-09-09T06:32:32;93072.66;;;15.42;90.91
12471;BME280;36499;46.484;13.832;2022-09-09T06:35:00;93065.34;;;15.44;91.00
12471;BME280;36499;46.484;13.832;2022-09-09T06:37:29;93059.81;;;15.46;91.12
12471;BME280;36499;46.484;13.832;2022-09-09T06:40:03;93068.34;;;15.53;90.82
12471;BME280;36499;46.484;13.832;2022-09-09T06:42:31;93060.72;;;15.51;90.33
12471;BME280;36499;46.484;13.832;2022-09-09T06:44:58;93060.53;;;15.58;90.38
12471;BME280;36499;46.484;13.832;2022-09-09T06:47:25;93063.25;;;15.63;90.06
12471;BME280;36499;46.484;13.832;2022-09-09T06:49:54;93071.97;;;15.68;90.52
12471;BME280;36499;46.484;13.832;2022-09-09T06:52:22;93071.19;;;15.68;89.97
12471;BME280;36499;46.484;13.832;2022-09-09T06:54:51;93071.81;;;15.75;89.24
12471;BME280;36499;46.484;13.832;2022-09-09T06:57:19;93067.91;;;15.77;88.82
12471;BME280;36499;46.484;13.832;2022-09-09T06:59:46;93072.97;;;15.84;89.12
12471;BME280;36499;46.484;13.832;2022-09-09T07:02:14;93073.53;;;15.86;89.40
12471;BME280;36499;46.484;13.832;2022-09-09T07:04:41;93080.97;;;15.94;90.59
12471;BME280;36499;46.484;13.832;2022-09-09T07:07:09;93085.25;;;16.00;91.13
12471;BME280;36499;46.484;13.832;2022-09-09T07:09:38;93082.69;;;16.05;91.10
12471;BME280;36499;46.484;13.832;2022-09-09T07:12:07;93086.16;;;16.11;91.35
12471;BME280;36499;46.484;13.832;2022-09-09T07:14:35;93090.69;;;16.15;91.68
12471;BME280;36499;46.484;13.832;2022-09-09T07:17:03;93086.78;;;16.18;91.89
12471;BME280;36499;46.484;13.832;2022-09-09T07:19:30;93081.56;;;16.23;91.84
12471;BME280;36499;46.484;13.832;2022-09-09T07:21:57;93084.50;;;16.26;92.06
12471;BME280;36499;46.484;13.832;2022-09-09T07:24:24;93087.66;;;16.28;91.79
12471;BME280;36499;46.484;13.832;2022-09-09T07:26:55;93086.91;;;16.28;91.94
12471;BME280;36499;46.484;13.832;2022-09-09T07:29:24;93076.38;;;16.28;91.91
12471;BME280;36499;46.484;13.832;2022-09-09T07:31:51;93084.50;;;16.26;91.77
12471;BME280;36499;46.484;13.832;2022-09-09T07:34:18;93086.09;;;16.27;92.28
12471;BME280;36499;46.484;13.832;2022-09-09T07:36:45;93076.38;;;16.28;92.14
12471;BME280;36499;46.484;13.832;2022-09-09T07:39:14;93079.84;;;16.33;92.54
12471;BME280;36499;46.484;13.832;2022-09-09T07:41:45;93080.44;;;16.41;92.36
12471;BME280;36499;46.484;13.832;2022-09-09T07:44:15;93081.59;;;16.50;92.71
12471;BME280;36499;46.484;13.832;2022-09-09T07:46:45;93084.84;;;16.57;92.60
12471;BME280;36499;46.484;13.832;2022-09-09T07:49:14;93081.25;;;16.68;91.81
12471;BME280;36499;46.484;13.832;2022-09-09T07:51:44;93083.97;;;16.78;91.12
12471;BME280;36499;46.484;13.832;2022-09-09T07:54:15;93086.66;;;16.83;90.49
12471;BME280;36499;46.484;13.832;2022-09-09T07:56:45;93088.59;;;16.93;90.11
12471;BME280;36499;46.484;13.832;2022-09-09T07:59:13;93084.94;;;16.99;89.43
12471;BME280;36499;46.484;13.832;2022-09-09T08:01:44;93085.53;;;17.06;88.97
12471;BME280;36499;46.484;13.832;2022-09-09T08:04:15;93076.38;;;17.13;87.92
12471;BME280;36499;46.484;13.832;2022-09-09T08:06:45;93077.22;;;17.19;87.60
12471;BME280;36499;46.484;13.832;2022-09-09T08:09:13;93078.28;;;17.23;87.13
12471;BME280;36499;46.484;13.832;2022-09-09T08:11:42;93077.50;;;17.27;87.39
12471;BME280;36499;46.484;13.832;2022-09-09T08:14:11;93082.53;;;17.29;87.09
12471;BME280;36499;46.484;13.832;2022-09-09T08:16:42;93081.22;;;17.32;87.39
12471;BME280;36499;46.484;13.832;2022-09-09T08:19:15;93087.81;;;17.29;86.43
12471;BME280;36499;46.484;13.832;2022-09-09T08:21:44;93091.50;;;17.28;86.66
12471;BME280;36499;46.484;13.832;2022-09-09T08:24:12;93097.03;;;17.26;86.15
12471;BME280;36499;46.484;13.832;2022-09-09T08:26:44;93106.22;;;17.24;85.78
12471;BME280;36499;46.484;13.832;2022-09-09T08:29:13;93109.13;;;17.22;85.50
12471;BME280;36499;46.484;13.832;2022-09-09T08:32:13;93113.31;;;17.23;85.81
12471;BME280;36499;46.484;13.832;2022-09-09T08:34:43;93114.91;;;17.24;86.41
12471;BME280;36499;46.484;13.832;2022-09-09T08:37:11;93115.97;;;17.23;86.65
12471;BME280;36499;46.484;13.832;2022-09-09T08:39:40;93113.09;;;17.25;87.46
12471;BME280;36499;46.484;13.832;2022-09-09T08:42:38;93117.09;;;17.33;88.08
12471;BME280;36499;46.484;13.832;2022-09-09T08:45:38;93117.38;;;17.36;88.29
12471;BME280;36499;46.484;13.832;2022-09-09T08:48:41;93096.53;;;17.30;88.66
12471;BME280;36499;46.484;13.832;2022-09-09T08:51:14;93098.13;;;17.31;88.39
12471;BME280;36499;46.484;13.832;2022-09-09T08:53:46;93113.31;;;17.18;88.10
12471;BME280;36499;46.484;13.832;2022-09-09T08:56:20;93100.03;;;17.08;88.61
12471;BME280;36499;46.484;13.832;2022-09-09T08:58:51;93112.91;;;17.05;88.75
12471;BME280;36499;46.484;13.832;2022-09-09T09:01:54;93111.22;;;16.89;88.46
12471;BME280;36499;46.484;13.832;2022-09-09T09:04:48;93108.00;;;16.82;89.27
12471;BME280;36499;46.484;13.832;2022-09-09T09:07:52;93108.19;;;16.75;89.63
12471;BME280;36499;46.484;13.832;2022-09-09T09:10:47;93100.53;;;16.73;90.78
12471;BME280;36499;46.484;13.832;2022-09-09T09:13:20;93104.44;;;16.66;90.60
12471;BME280;36499;46.484;13.832;2022-09-09T09:15:55;93110.38;;;16.56;91.89
12471;BME280;36499;46.484;13.832;2022-09-09T09:18:26;93102.75;;;16.60;92.08
12471;BME280;36499;46.484;13.832;2022-09-09T09:21:04;93114.94;;;16.66;92.04
12471;BME280;36499;46.484;13.832;2022-09-09T09:23:42;93105.25;;;16.71;92.25
12471;BME280;36499;46.484;13.832;2022-09-09T09:26:11;93110.56;;;16.76;92.72
12471;BME280;36499;46.484;13.832;2022-09-09T09:28:40;93108.00;;;16.82;92.42
12471;BME280;36499;46.484;13.832;2022-09-09T09:31:26;93114.31;;;16.86;91.98
12471;BME280;36499;46.484;13.832;2022-09-09T09:33:56;93117.00;;;16.91;91.95
12471;BME280;36499;46.484;13.832;2022-09-09T09:36:37;93113.34;;;16.92;91.54
12471;BME280;36499;46.484;13.832;2022-09-09T09:39:09;93113.41;;;16.97;91.31
12471;BME280;36499;46.484;13.832;2022-09-09T09:41:39;93092.34;;;17.02;91.07
12471;BME280;36499;46.484;13.832;2022-09-09T09:44:24;93090.81;;;17.06;90.84
12471;BME280;36499;46.484;13.832;2022-09-09T09:46:52;93087.94;;;17.12;90.97
12471;BME280;36499;46.484;13.832;2022-09-09T09:49:19;93074.03;;;17.17;91.53
12471;BME280;36499;46.484;13.832;2022-09-09T09:51:47;93076.94;;;17.20;91.21
12471;BME280;36499;46.484;13.832;2022-09-09T09:54:26;93076.69;;;17.22;92.02
12471;BME280;36499;46.484;13.832;2022-09-09T09:56:54;93083.34;;;17.30;91.85
12471;BME280;36499;46.484;13.832;2022-09-09T09:59:33;93076.75;;;17.32;91.66
12471;BME280;36499;46.484;13.832;2022-09-09T10:02:22;93083.56;;;17.23;90.94
12471;BME280;36499;46.484;13.832;2022-09-09T10:05:02;93079.56;;;17.15;91.38
12471;BME280;36499;46.484;13.832;2022-09-09T10:07:30;93073.50;;;17.15;91.57
12471;BME280;36499;46.484;13.832;2022-09-09T10:10:00;93071.66;;;17.15;91.32
12471;BME280;36499;46.484;13.832;2022-09-09T10:12:42;93070.06;;;17.14;90.59
12471;BME280;36499;46.484;13.832;2022-09-09T10:15:36;93084.19;;;17.03;91.07
12471;BME280;36499;46.484;13.832;2022-09-09T10:18:41;93082.09;;;17.00;91.34
12471;BME280;36499;46.484;13.832;2022-09-09T10:21:34;93085.69;;;16.94;92.12
12471;BME280;36499;46.484;13.832;2022-09-09T10:24:48;93077.28;;;16.92;92.24
12471;BME280;36499;46.484;13.832;2022-09-09T10:27:32;93078.84;;;16.93;92.82
12471;BME280;36499;46.484;13.832;2022-09-09T10:30:17;93086.25;;;16.96;93.27
12471;BME280;36499;46.484;13.832;2022-09-09T10:35:31;93087.59;;;16.99;93.22
12471;BME280;36499;46.484;13.832;2022-09-09T10:38:13;93095.25;;;17.00;92.71
12471;BME280;36499;46.484;13.832;2022-09-09T10:41:13;93087.06;;;17.02;92.81
12471;BME280;36499;46.484;13.832;2022-09-09T10:44:10;93085.81;;;17.09;93.27
12471;BME280;36499;46.484;13.832;2022-09-09T10:46:59;93083.22;;;17.14;94.12
12471;BME280;36499;46.484;13.832;2022-09-09T10:49:57;93074.91;;;17.33;94.10
12471;BME280;36499;46.484;13.832;2022-09-09T10:52:37;93065.00;;;17.45;94.02
12471;BME280;36499;46.484;13.832;2022-09-09T10:55:14;93057.44;;;17.58;93.07
12471;BME280;36499;46.484;13.832;2022-09-09T10:57:47;93059.06;;;17.64;92.98
12471;BME280;36499;46.484;13.832;2022-09-09T11:00:21;93054.09;;;17.73;92.13
12471;BME280;36499;46.484;13.832;2022-09-09T11:02:57;93045.19;;;17.84;92.11
12471;BME280;36499;46.484;13.832;2022-09-09T11:05:33;93038.09;;;17.90;91.81
12471;BME280;36499;46.484;13.832;2022-09-09T11:08:09;93047.84;;;17.89;90.19
12471;BME280;36499;46.484;13.832;2022-09-09T11:10:44;93043.13;;;18.01;90.38
12471;BME280;36499;46.484;13.832;2022-09-09T11:13:20;93045.81;;;18.11;89.83
12471;BME280;36499;46.484;13.832;2022-09-09T11:15:58;93043.69;;;18.08;89.01
12471;BME280;36499;46.484;13.832;2022-09-09T11:18:29;93044.22;;;18.05;88.54
12471;BME280;36499;46.484;13.832;2022-09-09T11:21:02;93038.44;;;18.13;88.55
12471;BME280;36499;46.484;13.832;2022-09-09T11:23:40;93026.81;;;18.09;87.92
12471;BME280;36499;46.484;13.832;2022-09-09T11:26:19;93029.69;;;18.08;87.47
12471;BME280;36499;46.484;13.832;2022-09-09T11:29:08;93036.53;;;18.04;87.05
12471;BME280;36499;46.484;13.832;2022-09-09T11:32:05;93024.44;;;18.03;87.07
12471;BME280;36499;46.484;13.832;2022-09-09T11:34:50;93027.34;;;18.06;87.40
12471;BME280;36499;46.484;13.832;2022-09-09T11:37:53;93025.75;;;18.10;87.33
12471;BME280;36499;46.484;13.832;2022-09-09T11:40:25;93011.78;;;18.20;88.58
12471;BME280;36499;46.484;13.832;2022-09-09T11:43:04;92995.19;;;18.30;87.37
12471;BME280;36499;46.484;13.832;2022-09-09T11:45:34;93005.78;;;18.45;86.98
12471;BME280;36499;46.484;13.832;2022-09-09T11:48:05;92998.63;;;18.45;86.82
12471;BME280;36499;46.484;13.832;2022-09-09T11:50:35;92997.34;;;18.53;87.13
12471;BME280;36499;46.484;13.832;2022-09-09T11:53:21;92998.97;;;18.64;88.02
12471;BME280;36499;46.484;13.832;2022-09-09T11:56:07;93000.81;;;18.74;87.76
12471;BME280;36499;46.484;13.832;2022-09-09T11:58:42;93005.31;;;18.78;86.57
12471;BME280;36499;46.484;13.832;2022-09-09T12:01:39;93008.47;;;18.85;86.58
12471;BME280;36499;46.484;13.832;2022-09-09T12:04:32;93011.63;;;18.87;85.60
12471;BME280;36499;46.484;13.832;2022-09-09T12:07:05;93009.25;;;19.06;86.39
12471;BME280;36499;46.484;13.832;2022-09-09T12:09:52;93015.56;;;19.20;83.21
12471;BME280;36499;46.484;13.832;2022-09-09T12:12:31;93007.38;;;19.27;82.35
12471;BME280;36499;46.484;13.832;2022-09-09T12:15:21;93008.44;;;19.21;82.78
12471;BME280;36499;46.484;13.832;2022-09-09T12:17:53;93007.66;;;19.20;83.34
12471;BME280;36499;46.484;13.832;2022-09-09T12:20:30;93000.22;;;19.22;82.85
12471;BME280;36499;46.484;13.832;2022-09-09T12:23:30;93003.16;;;19.21;82.31
12471;BME280;36499;46.484;13.832;2022-09-09T12:26:22;93007.38;;;19.16;81.01
12471;BME280;36499;46.484;13.832;2022-09-09T12:29:03;93007.41;;;19.01;81.33
12471;BME280;36499;46.484;13.832;2022-09-09T12:34:53;92995.47;;;19.19;81.29
12471;BME280;36499;46.484;13.832;2022-09-09T12:37:32;93005.78;;;19.26;79.96
12471;BME280;36499;46.484;13.832;2022-09-09T12:40:03;92999.19;;;19.28;79.94
12471;BME280;36499;46.484;13.832;2022-09-09T12:42:31;92979.84;;;19.33;80.22
12471;BME280;36499;46.484;13.832;2022-09-09T12:45:02;92984.09;;;19.29;80.47
12471;BME280;36499;46.484;13.832;2022-09-09T12:47:38;92986.47;;;19.40;80.00
12471;BME280;36499;46.484;13.832;2022-09-09T12:50:18;92977.69;;;19.60;79.87
12471;BME280;36499;46.484;13.832;2022-09-09T12:52:50;92978.97;;;19.73;80.78
12471;BME280;36499;46.484;13.832;2022-09-09T12:55:24;92976.63;;;19.66;79.61
12471;BME280;36499;46.484;13.832;2022-09-09T12:57:52;92970.78;;;19.64;80.11
12471;BME280;36499;46.484;13.832;2022-09-09T13:00:22;92969.47;;;19.67;79.63
12471;BME280;36499;46.484;13.832;2022-09-09T13:02:52;92966.59;;;19.63;79.70
12471;BME280;36499;46.484;13.832;2022-09-09T13:05:24;92962.91;;;19.54;78.74
12471;BME280;36499;46.484;13.832;2022-09-09T13:08:01;92966.88;;;19.51;79.21
12471;BME280;36499;46.484;13.832;2022-09-09T13:10:43;92966.34;;;19.54;78.17
12471;BME280;36499;46.484;13.832;2022-09-09T13:13:26;92965.00;;;19.52;78.32
12471;BME280;36499;46.484;13.832;2022-09-09T13:16:00;92955.47;;;19.61;79.22
12471;BME280;36499;46.484;13.832;2022-09-09T13:18:34;92950.66;;;19.68;78.18
12471;BME280;36499;46.484;13.832;2022-09-09T13:21:06;92962.66;;;19.55;77.90
12471;BME280;36499;46.484;13.832;2022-09-09T13:23:42;92954.97;;;19.49;78.73
12471;BME280;36499;46.484;13.832;2022-09-09T13:26:26;92951.78;;;19.52;78.82
12471;BME280;36499;46.484;13.832;2022-09-09T13:29:18;92949.44;;;19.50;78.62
12471;BME280;36499;46.484;13.832;2022-09-09T13:31:50;92947.03;;;19.49;79.28
12471;BME280;36499;46.484;13.832;2022-09-09T13:34:30;92945.50;;;19.43;78.91
12471;BME280;36499;46.484;13.832;2022-09-09T13:37:01;92946.25;;;19.38;78.35